sensor_id;sensor_type;location;lat;lon;timestamp;pressure;altitude;pressure_sealevel;temperature;humidity
20860;BME280;10590;48.154;11.514;2023-06-26T00:02:20;95741.44;;;17.58;58.85
20860;BME280;10590;48.154;11.514;2023-06-26T00:07:42;95742.50;;;17.54;59.84
20860;BME280;10590;48.154;11.514;2023-06-26T00:13:04;95744.34;;;17.49;59.83
20860;BME280;10590;48.154;11.514;2023-06-26T00:18:28;95749.31;;;17.47;59.87
20860;BME280;10590;48.154;11.514;2023-06-26T00:23:49;95743.72;;;17.37;60.51
20860;BME280;10590;48.154;11.514;2023-06-26T00:29:11;95757.38;;;17.28;60.78
20860;BME280;10590;48.154;11.514;2023-06-26T00:34:35;95757.16;;;17.17;59.92
20860;BME280;10590;48.154;11.514;2023-06-26T00:39:57;95759.47;;;17.35;61.44
20860;BME280;10590;48.154;11.514;2023-06-26T00:45:19;95743.69;;;17.17;61.33
20860;BME280;10590;48.154;11.514;2023-06-26T00:50:43;95750.72;;;17.22;60.36
20860;BME280;10590;48.154;11.514;2023-06-26T00:56:08;95763.91;;;17.27;60.75
20860;BME280;10590;48.154;11.514;2023-06-26T01:01:30;95751.91;;;17.05;61.02
20860;BME280;10590;48.154;11.514;2023-06-26T01:06:54;95756.44;;;17.01;60.41
20860;BME280;10590;48.154;11.514;2023-06-26T01:12:17;95746.78;;;17.00;61.66
20860;BME280;10590;48.154;11.514;2023-06-26T01:17:39;95748.56;;;16.93;61.29
20860;BME280;10590;48.154;11.514;2023-06-26T01:23:12;95746.06;;;16.84;60.33
20860;BME280;10590;48.154;11.514;2023-06-26T01:28:42;95746.69;;;16.77;61.06
20860;BME280;10590;48.154;11.514;2023-06-26T01:34:04;95746.59;;;16.74;60.35
20860;BME280;10590;48.154;11.514;2023-06-26T01:39:26;95744.59;;;16.71;60.20
20860;BME280;10590;48.154;11.514;2023-06-26T01:44:50;95738.91;;;16.92;58.76
20860;BME280;10590;48.154;11.514;2023-06-26T01:50:17;95740.28;;;16.66;59.93
20860;BME280;10590;48.154;11.514;2023-06-26T01:55:43;95730.16;;;16.79;58.81
20860;BME280;10590;48.154;11.514;2023-06-26T02:01:09;95736.56;;;16.90;58.45
20860;BME280;10590;48.154;11.514;2023-06-26T02:06:31;95730.50;;;16.77;58.39
20860;BME280;10590;48.154;11.514;2023-06-26T02:11:54;95739.28;;;16.74;58.52
20860;BME280;10590;48.154;11.514;2023-06-26T02:17:17;95736.97;;;16.57;59.67
20860;BME280;10590;48.154;11.514;2023-06-26T02:22:39;95737.66;;;16.54;59.55
20860;BME280;10590;48.154;11.514;2023-06-26T02:28:00;95743.13;;;16.58;59.14
20860;BME280;10590;48.154;11.514;2023-06-26T02:33:24;95750.06;;;16.59;59.57
20860;BME280;10590;48.154;11.514;2023-06-26T02:38:46;95744.06;;;16.34;61.02
20860;BME280;10590;48.154;11.514;2023-06-26T02:44:08;95751.19;;;16.42;60.38
20860;BME280;10590;48.154;11.514;2023-06-26T02:49:33;95738.53;;;16.27;60.75
20860;BME280;10590;48.154;11.514;2023-06-26T02:54:55;95740.25;;;16.35;61.14
20860;BME280;10590;48.154;11.514;2023-06-26T03:00:17;95737.03;;;16.29;60.92
20860;BME280;10590;48.154;11.514;2023-06-26T03:05:40;95745.81;;;16.26;61.23
20860;BME280;10590;48.154;11.514;2023-06-26T03:11:02;95751.09;;;16.38;60.69
20860;BME280;10590;48.154;11.514;2023-06-26T03:16:24;95744.84;;;16.34;60.92
20860;BME280;10590;48.154;11.514;2023-06-26T03:21:47;95743.03;;;16.22;61.15
20860;BME280;10590;48.154;11.514;2023-06-26T03:27:09;95743.47;;;16.24;61.33
20860;BME280;10590;48.154;11.514;2023-06-26T03:32:31;95734.09;;;16.34;61.51
20860;BME280;10590;48.154;11.514;2023-06-26T03:37:54;95744.69;;;16.27;61.09
20860;BME280;10590;48.154;11.514;2023-06-26T03:43:16;95742.50;;;16.33;60.44
20860;BME280;10590;48.154;11.514;2023-06-26T03:48:38;95746.31;;;16.63;60.29
20860;BME280;10590;48.154;11.514;2023-06-26T03:54:02;95745.19;;;16.80;58.43
20860;BME280;10590;48.154;11.514;2023-06-26T03:59:26;95733.59;;;16.95;58.09
20860;BME280;10590;48.154;11.514;2023-06-26T04:04:48;95735.28;;;17.03;58.21
20860;BME280;10590;48.154;11.514;2023-06-26T04:10:11;95733.97;;;17.32;56.98
20860;BME280;10590;48.154;11.514;2023-06-26T04:15:33;95738.47;;;17.44;56.11
20860;BME280;10590;48.154;11.514;2023-06-26T04:21:07;95736.75;;;17.55;55.84
20860;BME280;10590;48.154;11.514;2023-06-26T04:26:30;95739.31;;;17.67;55.33
20860;BME280;10590;48.154;11.514;2023-06-26T04:31:52;95741.63;;;17.88;55.30
20860;BME280;10590;48.154;11.514;2023-06-26T04:37:18;95739.72;;;18.11;55.05
20860;BME280;10590;48.154;11.514;2023-06-26T04:42:41;95751.38;;;18.38;54.16
20860;BME280;10590;48.154;11.514;2023-06-26T04:48:03;95748.09;;;18.52;53.28
20860;BME280;10590;48.154;11.514;2023-06-26T04:53:26;95744.16;;;18.69;52.97
20860;BME280;10590;48.154;11.514;2023-06-26T04:58:49;95733.69;;;18.94;52.22
20860;BME280;10590;48.154;11.514;2023-06-26T05:04:11;95738.53;;;19.07;51.42
20860;BME280;10590;48.154;11.514;2023-06-26T05:09:33;95741.88;;;19.27;51.23
20860;BME280;10590;48.154;11.514;2023-06-26T05:14:56;95740.44;;;19.67;50.65
20860;BME280;10590;48.154;11.514;2023-06-26T05:20:18;95743.75;;;19.53;51.93
20860;BME280;10590;48.154;11.514;2023-06-26T05:25:40;95744.47;;;20.21;50.07
20860;BME280;10590;48.154;11.514;2023-06-26T05:31:04;95745.50;;;20.50;48.75
20860;BME280;10590;48.154;11.514;2023-06-26T05:36:26;95741.63;;;20.51;49.93
20860;BME280;10590;48.154;11.514;2023-06-26T05:41:49;95743.53;;;20.98;48.77
20860;BME280;10590;48.154;11.514;2023-06-26T05:47:13;95751.50;;;21.35;46.37
20860;BME280;10590;48.154;11.514;2023-06-26T05:52:36;95747.78;;;21.68;46.56
20860;BME280;10590;48.154;11.514;2023-06-26T05:57:59;95753.66;;;21.88;46.44
20860;BME280;10590;48.154;11.514;2023-06-26T06:03:24;95749.84;;;22.32;45.45
20860;BME280;10590;48.154;11.514;2023-06-26T06:08:46;95740.94;;;22.56;45.19
20860;BME280;10590;48.154;11.514;2023-06-26T06:14:08;95733.19;;;22.83;44.48
20860;BME280;10590;48.154;11.514;2023-06-26T06:19:33;95736.88;;;23.64;43.69
20860;BME280;10590;48.154;11.514;2023-06-26T06:24:55;95743.38;;;23.84;43.21
20860;BME280;10590;48.154;11.514;2023-06-26T06:30:17;95735.88;;;24.02;42.66
20860;BME280;10590;48.154;11.514;2023-06-26T06:35:40;95744.09;;;25.40;39.80
20860;BME280;10590;48.154;11.514;2023-06-26T06:41:02;95740.44;;;27.35;35.84
20860;BME280;10590;48.154;11.514;2023-06-26T06:46:24;95749.69;;;26.51;37.36
20860;BME280;10590;48.154;11.514;2023-06-26T06:51:49;95746.38;;;26.10;36.75
20860;BME280;10590;48.154;11.514;2023-06-26T06:57:10;95744.25;;;25.26;38.29
20860;BME280;10590;48.154;11.514;2023-06-26T07:02:32;95746.84;;;26.58;35.87
20860;BME280;10590;48.154;11.514;2023-06-26T07:07:55;95745.75;;;26.25;36.90
20860;BME280;10590;48.154;11.514;2023-06-26T07:13:17;95740.69;;;25.66;37.82
20860;BME280;10590;48.154;11.514;2023-06-26T07:18:39;95744.47;;;25.76;36.90
20860;BME280;10590;48.154;11.514;2023-06-26T07:24:02;95746.03;;;26.34;36.68
20860;BME280;10590;48.154;11.514;2023-06-26T07:29:24;95743.38;;;26.27;37.20
20860;BME280;10590;48.154;11.514;2023-06-26T07:34:46;95734.00;;;27.02;36.01
20860;BME280;10590;48.154;11.514;2023-06-26T07:40:10;95742.88;;;28.94;31.93
20860;BME280;10590;48.154;11.514;2023-06-26T07:45:32;95745.16;;;27.94;34.15
20860;BME280;10590;48.154;11.514;2023-06-26T07:50:54;95744.53;;;27.04;36.52
20860;BME280;10590;48.154;11.514;2023-06-26T07:56:17;95742.88;;;27.29;36.22
20860;BME280;10590;48.154;11.514;2023-06-26T08:01:39;95736.41;;;27.00;37.06
20860;BME280;10590;48.154;11.514;2023-06-26T08:07:03;95738.88;;;29.56;32.25
20860;BME280;10590;48.154;11.514;2023-06-26T08:12:27;95736.84;;;29.28;34.32
20860;BME280;10590;48.154;11.514;2023-06-26T08:17:49;95730.84;;;30.03;32.27
20860;BME280;10590;48.154;11.514;2023-06-26T08:23:11;95727.31;;;30.28;32.24
20860;BME280;10590;48.154;11.514;2023-06-26T08:28:37;95731.22;;;31.82;28.45
20860;BME280;10590;48.154;11.514;2023-06-26T08:33:58;95728.84;;;33.32;26.31
20860;BME280;10590;48.154;11.514;2023-06-26T08:39:20;95727.56;;;33.60;26.49
20860;BME280;10590;48.154;11.514;2023-06-26T08:44:46;95726.88;;;34.86;24.50
20860;BME280;10590;48.154;11.514;2023-06-26T08:50:10;95715.78;;;35.49;25.16
20860;BME280;10590;48.154;11.514;2023-06-26T08:55:35;95721.75;;;35.71;22.86
20860;BME280;10590;48.154;11.514;2023-06-26T09:01:01;95718.69;;;35.69;24.43
20860;BME280;10590;48.154;11.514;2023-06-26T09:06:24;95707.66;;;35.21;23.57
20860;BME280;10590;48.154;11.514;2023-06-26T09:11:46;95708.06;;;35.29;22.78
20860;BME280;10590;48.154;11.514;2023-06-26T09:17:10;95707.97;;;35.23;23.79
20860;BME280;10590;48.154;11.514;2023-06-26T09:22:33;95695.72;;;35.68;23.60
20860;BME280;10590;48.154;11.514;2023-06-26T09:27:56;95688.81;;;36.08;22.36
20860;BME280;10590;48.154;11.514;2023-06-26T09:33:20;95687.59;;;37.20;20.28
20860;BME280;10590;48.154;11.514;2023-06-26T09:38:42;95687.63;;;36.44;21.14
20860;BME280;10590;48.154;11.514;2023-06-26T09:44:05;95675.22;;;35.95;21.22
20860;BME280;10590;48.154;11.514;2023-06-26T09:49:29;95685.41;;;34.26;23.07
20860;BME280;10590;48.154;11.514;2023-06-26T09:55:07;95670.47;;;34.89;21.66
20860;BME280;10590;48.154;11.514;2023-06-26T10:00:30;95659.19;;;32.87;24.04
20860;BME280;10590;48.154;11.514;2023-06-26T10:05:54;95671.66;;;34.07;22.55
20860;BME280;10590;48.154;11.514;2023-06-26T10:11:20;95667.25;;;35.05;22.01
20860;BME280;10590;48.154;11.514;2023-06-26T10:16:45;95651.50;;;34.64;22.06
20860;BME280;10590;48.154;11.514;2023-06-26T10:22:13;95660.59;;;35.12;21.60
20860;BME280;10590;48.154;11.514;2023-06-26T10:27:38;95651.75;;;33.67;23.00
20860;BME280;10590;48.154;11.514;2023-06-26T10:33:04;95666.38;;;35.53;20.70
20860;BME280;10590;48.154;11.514;2023-06-26T10:38:48;95640.75;;;36.37;19.19
20860;BME280;10590;48.154;11.514;2023-06-26T10:44:11;95656.47;;;34.60;21.32
20860;BME280;10590;48.154;11.514;2023-06-26T10:49:35;95638.59;;;36.12;20.50
20860;BME280;10590;48.154;11.514;2023-06-26T10:55:00;95654.25;;;34.97;21.23
20860;BME280;10590;48.154;11.514;2023-06-26T11:00:49;95638.09;;;36.43;20.19
20860;BME280;10590;48.154;11.514;2023-06-26T11:06:14;95640.91;;;31.51;25.40
20860;BME280;10590;48.154;11.514;2023-06-26T11:11:55;95642.09;;;34.70;21.74
20860;BME280;10590;48.154;11.514;2023-06-26T11:17:21;95626.13;;;35.04;20.93
20860;BME280;10590;48.154;11.514;2023-06-26T11:22:43;95634.16;;;35.02;20.99
20860;BME280;10590;48.154;11.514;2023-06-26T11:28:05;95646.13;;;34.36;22.82
20860;BME280;10590;48.154;11.514;2023-06-26T11:33:29;95639.50;;;31.25;27.10
20860;BME280;10590;48.154;11.514;2023-06-26T11:38:54;95637.47;;;34.67;22.70
20860;BME280;10590;48.154;11.514;2023-06-26T11:44:17;95621.13;;;35.91;20.97
20860;BME280;10590;48.154;11.514;2023-06-26T11:49:43;95625.22;;;35.95;21.32
20860;BME280;10590;48.154;11.514;2023-06-26T11:55:08;95625.63;;;34.67;23.77
20860;BME280;10590;48.154;11.514;2023-06-26T12:00:31;95614.16;;;35.81;20.98
20860;BME280;10590;48.154;11.514;2023-06-26T12:05:55;95622.16;;;35.93;20.02
20860;BME280;10590;48.154;11.514;2023-06-26T12:11:17;95610.06;;;36.11;20.66
20860;BME280;10590;48.154;11.514;2023-06-26T12:16:39;95624.88;;;36.58;20.21
20860;BME280;10590;48.154;11.514;2023-06-26T12:22:06;95622.47;;;35.36;22.21
20860;BME280;10590;48.154;11.514;2023-06-26T12:27:29;95613.47;;;35.41;20.85
20860;BME280;10590;48.154;11.514;2023-06-26T12:32:50;95615.38;;;35.80;20.85
20860;BME280;10590;48.154;11.514;2023-06-26T12:38:15;95609.69;;;36.38;20.64
20860;BME280;10590;48.154;11.514;2023-06-26T12:43:41;95608.41;;;36.54;20.93
20860;BME280;10590;48.154;11.514;2023-06-26T12:49:03;95614.50;;;31.72;24.94
20860;BME280;10590;48.154;11.514;2023-06-26T12:54:28;95607.84;;;33.41;23.24
20860;BME280;10590;48.154;11.514;2023-06-26T12:59:50;95595.81;;;35.00;21.33
20860;BME280;10590;48.154;11.514;2023-06-26T13:05:12;95604.75;;;35.34;21.46
20860;BME280;10590;48.154;11.514;2023-06-26T13:10:35;95578.91;;;35.42;21.23
20860;BME280;10590;48.154;11.514;2023-06-26T13:15:57;95583.13;;;35.82;20.94
20860;BME280;10590;48.154;11.514;2023-06-26T13:21:19;95584.56;;;32.78;24.98
20860;BME280;10590;48.154;11.514;2023-06-26T13:26:43;95578.69;;;34.39;23.04
20860;BME280;10590;48.154;11.514;2023-06-26T13:32:08;95569.19;;;32.86;25.65
20860;BME280;10590;48.154;11.514;2023-06-26T13:37:33;95570.66;;;33.42;24.45
20860;BME280;10590;48.154;11.514;2023-06-26T13:42:57;95563.03;;;32.55;24.97
20860;BME280;10590;48.154;11.514;2023-06-26T13:48:21;95562.47;;;31.09;27.10
20860;BME280;10590;48.154;11.514;2023-06-26T13:53:44;95563.97;;;34.33;23.16
20860;BME280;10590;48.154;11.514;2023-06-26T13:59:08;95567.63;;;33.13;25.21
20860;BME280;10590;48.154;11.514;2023-06-26T14:04:30;95553.66;;;34.34;23.22
20860;BME280;10590;48.154;11.514;2023-06-26T14:09:51;95562.50;;;33.81;23.54
20860;BME280;10590;48.154;11.514;2023-06-26T14:15:15;95558.47;;;34.48;22.87
20860;BME280;10590;48.154;11.514;2023-06-26T14:20:37;95559.16;;;33.86;23.98
20860;BME280;10590;48.154;11.514;2023-06-26T14:25:59;95538.31;;;35.16;22.88
20860;BME280;10590;48.154;11.514;2023-06-26T14:31:22;95553.31;;;34.32;22.34
20860;BME280;10590;48.154;11.514;2023-06-26T14:36:44;95543.84;;;33.58;24.74
20860;BME280;10590;48.154;11.514;2023-06-26T14:42:07;95537.84;;;33.59;24.28
20860;BME280;10590;48.154;11.514;2023-06-26T14:47:30;95550.28;;;32.76;24.74
20860;BME280;10590;48.154;11.514;2023-06-26T14:52:52;95538.47;;;31.40;26.81
20860;BME280;10590;48.154;11.514;2023-06-26T14:58:14;95532.00;;;33.06;26.54
20860;BME280;10590;48.154;11.514;2023-06-26T15:03:37;95518.75;;;34.03;24.23
20860;BME280;10590;48.154;11.514;2023-06-26T15:08:59;95520.06;;;32.63;26.22
20860;BME280;10590;48.154;11.514;2023-06-26T15:14:21;95533.34;;;31.60;26.08
20860;BME280;10590;48.154;11.514;2023-06-26T15:19:44;95532.69;;;30.72;28.06
20860;BME280;10590;48.154;11.514;2023-06-26T15:25:09;95526.13;;;30.57;27.87
20860;BME280;10590;48.154;11.514;2023-06-26T15:30:31;95518.03;;;30.06;28.81
20860;BME280;10590;48.154;11.514;2023-06-26T15:35:54;95518.63;;;29.76;29.35
20860;BME280;10590;48.154;11.514;2023-06-26T15:41:16;95522.00;;;29.42;30.93
20860;BME280;10590;48.154;11.514;2023-06-26T15:46:38;95514.75;;;28.68;34.67
20860;BME280;10590;48.154;11.514;2023-06-26T15:52:01;95522.41;;;28.61;34.77
20860;BME280;10590;48.154;11.514;2023-06-26T15:57:23;95523.75;;;28.40;34.78
20860;BME280;10590;48.154;11.514;2023-06-26T16:02:45;95534.00;;;28.23;36.62
20860;BME280;10590;48.154;11.514;2023-06-26T16:08:10;95539.50;;;27.90;36.89
20860;BME280;10590;48.154;11.514;2023-06-26T16:13:32;95535.31;;;27.34;38.48
20860;BME280;10590;48.154;11.514;2023-06-26T16:18:54;95500.03;;;27.19;38.82
20860;BME280;10590;48.154;11.514;2023-06-26T16:24:17;95507.56;;;27.32;38.84
20860;BME280;10590;48.154;11.514;2023-06-26T16:29:39;95505.34;;;27.43;38.21
20860;BME280;10590;48.154;11.514;2023-06-26T16:35:04;95509.13;;;27.49;38.38
20860;BME280;10590;48.154;11.514;2023-06-26T16:40:28;95515.63;;;27.39;38.62
20860;BME280;10590;48.154;11.514;2023-06-26T16:45:50;95511.44;;;27.34;38.59
20860;BME280;10590;48.154;11.514;2023-06-26T16:51:12;95518.00;;;27.20;39.09
20860;BME280;10590;48.154;11.514;2023-06-26T16:56:35;95515.34;;;27.17;39.21
20860;BME280;10590;48.154;11.514;2023-06-26T17:01:57;95525.50;;;27.00;39.74
20860;BME280;10590;48.154;11.514;2023-06-26T17:07:22;95524.22;;;27.05;39.83
20860;BME280;10590;48.154;11.514;2023-06-26T17:12:46;95538.53;;;27.12;39.67
20860;BME280;10590;48.154;11.514;2023-06-26T17:18:08;95538.75;;;26.62;41.71
20860;BME280;10590;48.154;11.514;2023-06-26T17:23:30;95531.16;;;26.50;42.34
20860;BME280;10590;48.154;11.514;2023-06-26T17:28:53;95550.22;;;26.33;43.57
20860;BME280;10590;48.154;11.514;2023-06-26T17:34:15;95544.91;;;25.99;44.89
20860;BME280;10590;48.154;11.514;2023-06-26T17:39:37;95538.31;;;25.97;45.64
20860;BME280;10590;48.154;11.514;2023-06-26T17:45:02;95532.19;;;25.66;46.86
20860;BME280;10590;48.154;11.514;2023-06-26T17:50:24;95546.22;;;25.68;46.67
20860;BME280;10590;48.154;11.514;2023-06-26T17:55:46;95569.41;;;24.95;48.59
20860;BME280;10590;48.154;11.514;2023-06-26T18:01:09;95564.63;;;24.72;50.06
20860;BME280;10590;48.154;11.514;2023-06-26T18:06:31;95563.88;;;24.68;50.88
20860;BME280;10590;48.154;11.514;2023-06-26T18:11:53;95574.34;;;24.39;52.46
20860;BME280;10590;48.154;11.514;2023-06-26T18:17:16;95575.19;;;24.26;53.50
20860;BME280;10590;48.154;11.514;2023-06-26T18:22:38;95603.97;;;23.86;55.24
20860;BME280;10590;48.154;11.514;2023-06-26T18:28:01;95620.75;;;23.84;55.76
20860;BME280;10590;48.154;11.514;2023-06-26T18:33:24;95626.16;;;23.88;56.15
20860;BME280;10590;48.154;11.514;2023-06-26T18:38:49;95646.09;;;23.77;56.00
20860;BME280;10590;48.154;11.514;2023-06-26T18:44:11;95645.09;;;23.39;56.78
20860;BME280;10590;48.154;11.514;2023-06-26T18:49:35;95664.22;;;23.25;57.77
20860;BME280;10590;48.154;11.514;2023-06-26T18:54:57;95662.72;;;23.13;58.92
20860;BME280;10590;48.154;11.514;2023-06-26T19:00:19;95659.25;;;23.09;59.02
20860;BME280;10590;48.154;11.514;2023-06-26T19:05:42;95654.22;;;23.01;60.26
20860;BME280;10590;48.154;11.514;2023-06-26T19:11:06;95646.78;;;23.08;59.51
20860;BME280;10590;48.154;11.514;2023-06-26T19:16:27;95649.91;;;23.07;59.03
20860;BME280;10590;48.154;11.514;2023-06-26T19:21:51;95656.91;;;23.04;58.88
20860;BME280;10590;48.154;11.514;2023-06-26T19:27:13;95662.38;;;23.01;58.16
20860;BME280;10590;48.154;11.514;2023-06-26T19:32:38;95681.81;;;22.99;58.08
20860;BME280;10590;48.154;11.514;2023-06-26T19:38:01;95691.16;;;22.98;58.00
20860;BME280;10590;48.154;11.514;2023-06-26T19:43:25;95695.44;;;22.96;56.41
20860;BME280;10590;48.154;11.514;2023-06-26T19:48:47;95708.69;;;22.90;56.42
20860;BME280;10590;48.154;11.514;2023-06-26T19:54:11;95719.19;;;22.81;56.43
20860;BME280;10590;48.154;11.514;2023-06-26T19:59:33;95727.34;;;22.74;57.43
20860;BME280;10590;48.154;11.514;2023-06-26T20:04:55;95736.69;;;22.62;57.38
20860;BME280;10590;48.154;11.514;2023-06-26T20:10:18;95739.75;;;22.50;56.11
20860;BME280;10590;48.154;11.514;2023-06-26T20:15:40;95744.03;;;22.44;56.55
20860;BME280;10590;48.154;11.514;2023-06-26T20:21:02;95743.25;;;22.33;56.44
20860;BME280;10590;48.154;11.514;2023-06-26T20:26:26;95754.88;;;22.12;56.05
20860;BME280;10590;48.154;11.514;2023-06-26T20:31:47;95757.94;;;22.00;56.51
20860;BME280;10590;48.154;11.514;2023-06-26T20:37:09;95763.75;;;21.87;56.67
20860;BME280;10590;48.154;11.514;2023-06-26T20:42:33;95765.31;;;21.92;56.38
20860;BME280;10590;48.154;11.514;2023-06-26T20:47:57;95771.88;;;21.80;57.76
20860;BME280;10590;48.154;11.514;2023-06-26T20:53:20;95767.56;;;21.69;58.20
20860;BME280;10590;48.154;11.514;2023-06-26T20:58:43;95766.41;;;21.70;57.45
20860;BME280;10590;48.154;11.514;2023-06-26T21:04:05;95772.13;;;21.54;57.70
20860;BME280;10590;48.154;11.514;2023-06-26T21:09:27;95779.88;;;21.52;56.87
20860;BME280;10590;48.154;11.514;2023-06-26T21:14:53;95779.09;;;21.48;56.38
20860;BME280;10590;48.154;11.514;2023-06-26T21:20:15;95781.78;;;21.41;56.63
20860;BME280;10590;48.154;11.514;2023-06-26T21:25:40;95790.22;;;21.25;56.20
20860;BME280;10590;48.154;11.514;2023-06-26T21:31:04;95806.53;;;21.28;56.07
20860;BME280;10590;48.154;11.514;2023-06-26T21:36:26;95809.16;;;21.18;55.55
20860;BME280;10590;48.154;11.514;2023-06-26T21:41:48;95821.53;;;21.12;54.57
20860;BME280;10590;48.154;11.514;2023-06-26T21:47:11;95828.94;;;21.18;53.65
20860;BME280;10590;48.154;11.514;2023-06-26T21:52:35;95831.31;;;21.23;51.43
20860;BME280;10590;48.154;11.514;2023-06-26T21:57:57;95834.34;;;21.18;49.37
20860;BME280;10590;48.154;11.514;2023-06-26T22:03:21;95838.63;;;21.19;50.07
20860;BME280;10590;48.154;11.514;2023-06-26T22:08:42;95856.53;;;21.24;50.69
20860;BME280;10590;48.154;11.514;2023-06-26T22:14:05;95859.91;;;21.14;51.03
20860;BME280;10590;48.154;11.514;2023-06-26T22:19:28;95862.56;;;21.03;50.50
20860;BME280;10590;48.154;11.514;2023-06-26T22:24:50;95867.19;;;21.03;49.63
20860;BME280;10590;48.154;11.514;2023-06-26T22:30:13;95881.16;;;21.05;49.49
20860;BME280;10590;48.154;11.514;2023-06-26T22:35:36;95885.38;;;20.95;48.25
20860;BME280;10590;48.154;11.514;2023-06-26T22:40:58;95882.25;;;20.93;48.66
20860;BME280;10590;48.154;11.514;2023-06-26T22:46:20;95891.56;;;20.95;46.51
20860;BME280;10590;48.154;11.514;2023-06-26T22:51:43;95893.72;;;20.79;46.71
20860;BME280;10590;48.154;11.514;2023-06-26T22:57:07;95896.94;;;20.88;47.41
20860;BME280;10590;48.154;11.514;2023-06-26T23:02:28;95900.81;;;20.87;47.60
20860;BME280;10590;48.154;11.514;2023-06-26T23:07:52;95876.50;;;20.61;46.12
20860;BME280;10590;48.154;11.514;2023-06-26T23:13:14;95901.16;;;20.45;45.42
20860;BME280;10590;48.154;11.514;2023-06-26T23:18:36;95907.13;;;20.28;44.33
20860;BME280;10590;48.154;11.514;2023-06-26T23:23:59;95908.25;;;20.23;44.17
20860;BME280;10590;48.154;11.514;2023-06-26T23:29:21;95906.19;;;20.13;43.73
20860;BME280;10590;48.154;11.514;2023-06-26T23:34:43;95908.00;;;20.02;44.10
20860;BME280;10590;48.154;11.514;2023-06-26T23:40:08;95923.00;;;19.96;43.89
20860;BME280;10590;48.154;11.514;2023-06-26T23:45:30;95917.84;;;19.87;43.52
20860;BME280;10590;48.154;11.514;2023-06-26T23:50:52;95920.31;;;19.69;44.48
20860;BME280;10590;48.154;11.514;2023-06-26T23:56:15;95926.47;;;19.66;44.14
